Time;durP1;ratioP1;P1;durP2;ratioP2;P2;SDS_P1;SDS_P2;PMS_P1;PMS_P2;Temp;Humidity;BMP_temperature;BMP_pressure;BME280_temperature;BME280_humidity;BME280_pressure;Samples;Min_cycle;Max_cycle;Signal;HPM_P1;HPM_P2
2022/01/01 00:02:16;;;;;;;15.27;9.30;;;;;;;10.43;100.00;99426.28;5071363;28;20095;-65
2022/01/01 00:04:42;;;;;;;15.67;9.40;;;;;;;10.47;100.00;99430.22;5071587;28;20109;-65
2022/01/01 00:07:09;;;;;;;14.00;9.10;;;;;;;10.40;100.00;99440.81;5071137;28;20121;-65
2022/01/01 00:09:35;;;;;;;14.47;8.87;;;;;;;10.33;100.00;99447.94;5071166;28;20024;-64
2022/01/01 00:12:01;;;;;;;13.90;9.23;;;;;;;10.25;100.00;99441.88;5070717;28;20432;-65
2022/01/01 00:14:26;;;;;;;15.53;9.37;;;;;;;10.17;100.00;99440.09;5071083;28;20029;-65
2022/01/01 00:16:52;;;;;;;15.60;9.60;;;;;;;10.11;100.00;99431.00;5070989;28;20519;-64
2022/01/01 00:19:17;;;;;;;16.27;10.13;;;;;;;10.08;100.00;99435.88;5071078;28;20068;-64
2022/01/01 00:21:43;;;;;;;18.00;10.97;;;;;;;10.03;100.00;99443.63;5070974;28;20028;-65
2022/01/01 00:24:09;;;;;;;17.30;11.67;;;;;;;9.98;100.00;99454.03;5070924;28;20052;-65
2022/01/01 00:26:35;;;;;;;21.27;10.40;;;;;;;9.91;100.00;99455.78;5070934;28;20039;-65
2022/01/01 00:29:01;;;;;;;15.80;10.20;;;;;;;9.81;100.00;99456.03;5070881;28;20320;-64
2022/01/01 00:31:28;;;;;;;14.27;9.30;;;;;;;9.67;100.00;99452.38;5070880;28;20032;-64
2022/01/01 00:33:53;;;;;;;16.00;10.10;;;;;;;9.65;100.00;99453.56;5070930;28;20020;-65
2022/01/01 00:36:19;;;;;;;16.07;10.43;;;;;;;9.65;100.00;99457.06;5070855;28;20431;-65
2022/01/01 00:38:44;;;;;;;17.73;10.70;;;;;;;9.68;100.00;99455.88;5070814;28;20024;-64
2022/01/01 00:41:10;;;;;;;16.63;10.43;;;;;;;9.70;100.00;99454.66;5069598;28;20380;-64
2022/01/01 00:43:35;;;;;;;15.37;9.70;;;;;;;9.74;100.00;99452.47;5070899;28;20070;-64
2022/01/01 00:46:01;;;;;;;15.20;9.33;;;;;;;9.92;100.00;99460.13;5070613;28;20104;-65
2022/01/01 00:48:26;;;;;;;14.03;8.90;;;;;;;9.98;100.00;99462.03;5070810;28;20029;-65
2022/01/01 00:50:52;;;;;;;17.27;10.47;;;;;;;9.96;100.00;99456.88;5070616;28;20044;-64
2022/01/01 00:53:17;;;;;;;14.67;9.80;;;;;;;9.90;100.00;99462.97;5070766;28;20035;-64
2022/01/01 00:55:43;;;;;;;17.83;10.20;;;;;;;9.83;100.00;99464.69;5070605;28;20035;-65
2022/01/01 00:58:08;;;;;;;16.70;9.60;;;;;;;9.79;100.00;99468.78;5072425;28;20029;-64
2022/01/01 01:00:34;;;;;;;13.23;8.43;;;;;;;9.82;100.00;99463.03;5074476;28;20082;-65
2022/01/01 01:03:00;;;;;;;14.57;8.80;;;;;;;9.85;100.00;99467.19;5074401;28;20024;-64
2022/01/01 01:05:26;;;;;;;12.50;8.40;;;;;;;9.86;100.00;99475.03;5074341;28;20028;-65
2022/01/01 01:07:51;;;;;;;12.93;8.10;;;;;;;9.81;100.00;99472.06;5074229;28;20509;-65
2022/01/01 01:10:17;;;;;;;14.30;9.07;;;;;;;9.93;100.00;99475.94;5074025;28;20028;-64
2022/01/01 01:12:47;;;;;;;14.10;8.93;;;;;;;9.90;100.00;99480.81;5074307;28;20029;-65
2022/01/01 01:15:17;;;;;;;13.27;8.60;;;;;;;9.81;100.00;99480.06;5074230;28;20028;-64
2022/01/01 01:17:48;;;;;;;13.33;8.63;;;;;;;9.86;100.00;99485.69;5073296;28;20020;-65
2022/01/01 01:20:14;;;;;;;13.20;9.00;;;;;;;9.94;100.00;99482.94;5074245;28;20078;-65
2022/01/01 01:22:40;;;;;;;12.10;8.33;;;;;;;9.90;100.00;99475.50;5074304;28;20028;-64
2022/01/01 01:25:07;;;;;;;9.70;6.87;;;;;;;9.98;100.00;99488.75;5072857;28;20029;-65
2022/01/01 01:27:35;;;;;;;11.90;7.40;;;;;;;9.97;100.00;99484.41;5074311;28;20078;-66
2022/01/01 01:30:02;;;;;;;10.87;6.80;;;;;;;10.02;100.00;99485.53;5074023;28;20485;-66
2022/01/01 01:32:28;;;;;;;9.73;6.00;;;;;;;10.14;100.00;99486.72;5074031;28;20020;-65
2022/01/01 01:34:56;;;;;;;8.80;5.93;;;;;;;10.21;100.00;99480.66;5073674;28;20062;-65
2022/01/01 01:37:23;;;;;;;9.77;6.07;;;;;;;10.26;100.00;99484.44;5072433;28;20033;-64
2022/01/01 01:39:48;;;;;;;8.30;5.27;;;;;;;10.35;100.00;99487.81;5072448;28;20537;-64
2022/01/01 01:42:14;;;;;;;8.70;5.57;;;;;;;10.41;100.00;99484.41;5073976;28;20055;-64
2022/01/01 01:44:43;;;;;;;8.23;5.40;;;;;;;10.37;100.00;99477.78;5073880;28;20027;-64
2022/01/01 01:47:15;;;;;;;10.30;5.83;;;;;;;10.31;100.00;99482.03;5073418;28;20067;-64
2022/01/01 01:49:43;;;;;;;8.57;5.50;;;;;;;10.33;100.00;99484.50;5073629;28;20709;-65
2022/01/01 01:52:08;;;;;;;8.67;4.93;;;;;;;10.32;100.00;99489.03;5073247;28;20031;-64
2022/01/01 01:54:34;;;;;;;9.37;6.10;;;;;;;10.20;100.00;99495.03;5073426;28;20028;-64
2022/01/01 01:56:59;;;;;;;9.33;5.60;;;;;;;10.34;100.00;99488.84;5072109;28;20028;-65
2022/01/01 01:59:25;;;;;;;11.17;6.20;;;;;;;10.38;100.00;99490.13;5073452;28;20393;-64
2022/01/01 02:01:52;;;;;;;9.10;5.93;;;;;;;10.44;100.00;99486.72;5072070;28;20060;-64
2022/01/01 02:04:17;;;;;;;8.47;5.17;;;;;;;10.44;100.00;99487.53;5073417;28;20059;-64
2022/01/01 02:06:44;;;;;;;9.60;5.93;;;;;;;10.45;100.00;99478.50;5073152;28;20020;-65
2022/01/01 02:09:11;;;;;;;11.87;6.17;;;;;;;10.41;100.00;99487.91;5073046;28;20054;-64
2022/01/01 02:11:41;;;;;;;10.13;5.57;;;;;;;10.39;100.00;99491.75;5072862;28;20048;-65
2022/01/01 02:14:16;;;;;;;10.87;7.00;;;;;;;10.37;100.00;99488.47;5073000;28;20043;-65
2022/01/01 02:19:27;;;;;;;8.77;5.80;;;;;;;10.30;100.00;99488.38;5073299;28;20032;-64
2022/01/01 02:21:55;;;;;;;9.80;6.60;;;;;;;10.32;100.00;99501.56;5071777;28;20067;-64
2022/01/01 02:24:21;;;;;;;8.90;5.63;;;;;;;10.41;100.00;99495.09;5072804;28;20042;-65
2022/01/01 02:26:46;;;;;;;10.53;6.37;;;;;;;10.41;100.00;99495.91;5072683;28;20028;-64
2022/01/01 02:29:12;;;;;;;10.37;5.30;;;;;;;10.44;100.00;99503.56;5072690;28;20028;-65
2022/01/01 02:31:38;;;;;;;9.50;5.63;;;;;;;10.53;100.00;99506.94;5072668;28;20071;-64
2022/01/01 02:34:08;;;;;;;10.07;5.73;;;;;;;10.47;100.00;99497.84;5072672;28;20460;-65
2022/01/01 02:36:42;;;;;;;8.77;5.60;;;;;;;10.47;100.00;99500.53;5072650;28;20032;-65
2022/01/01 02:39:20;;;;;;;;;;;;;;;10.58;100.00;99501.88;5073162;28;20419;-65
2022/01/01 02:41:50;;;;;;;8.80;5.50;;;;;;;10.57;100.00;99510.09;5072543;28;19912;-65
2022/01/01 02:44:15;;;;;;;9.23;5.53;;;;;;;10.52;100.00;99507.97;5072688;28;20024;-64
2022/01/01 02:46:41;;;;;;;10.10;6.50;;;;;;;10.50;100.00;99507.31;5072473;28;20370;-64
2022/01/01 02:49:07;;;;;;;10.07;6.40;;;;;;;10.45;100.00;99517.75;5072529;28;20639;-65
2022/01/01 02:51:33;;;;;;;9.80;5.87;;;;;;;10.49;100.00;99503.00;5072341;28;20024;-64
2022/01/01 02:53:59;;;;;;;9.47;5.83;;;;;;;10.49;100.00;99501.19;5072338;28;20119;-65
2022/01/01 02:56:25;;;;;;;8.83;5.90;;;;;;;10.45;100.00;99509.75;5072577;28;20103;-65
2022/01/01 02:58:51;;;;;;;9.77;6.33;;;;;;;10.45;100.00;99523.94;5072261;28;20070;-65
2022/01/01 03:01:18;;;;;;;10.50;6.03;;;;;;;10.46;100.00;99528.25;5072461;28;20024;-64
2022/01/01 03:03:44;;;;;;;9.10;5.80;;;;;;;10.52;100.00;99524.00;5072118;28;20473;-65
2022/01/01 03:06:10;;;;;;;10.80;7.00;;;;;;;10.56;100.00;99519.94;5071953;28;20389;-65
2022/01/01 03:08:36;;;;;;;9.87;5.73;;;;;;;10.52;100.00;99522.16;5072012;28;20039;-64
2022/01/01 03:11:02;;;;;;;9.03;6.00;;;;;;;10.52;100.00;99526.66;5071603;28;20049;-64
2022/01/01 03:13:29;;;;;;;10.47;6.50;;;;;;;10.51;100.00;99528.50;5072176;28;20103;-65
2022/01/01 03:15:55;;;;;;;10.13;6.10;;;;;;;10.51;100.00;99530.34;5071795;28;20153;-65
2022/01/01 03:18:21;;;;;;;11.67;6.37;;;;;;;10.45;100.00;99533.78;5072041;28;20025;-65
2022/01/01 03:20:46;;;;;;;9.77;5.80;;;;;;;10.43;100.00;99536.63;5071294;28;20019;-64
2022/01/01 03:23:12;;;;;;;10.60;6.43;;;;;;;10.40;100.00;99528.97;5071685;28;20039;-64
2022/01/01 03:25:37;;;;;;;10.33;6.17;;;;;;;10.48;100.00;99531.56;5070142;28;20115;-65
2022/01/01 03:28:04;;;;;;;9.47;5.77;;;;;;;10.51;100.00;99533.84;5071480;28;20058;-64
2022/01/01 03:30:29;;;;;;;11.00;6.40;;;;;;;10.64;100.00;99545.72;5070416;28;20050;-64
2022/01/01 03:32:55;;;;;;;9.13;5.90;;;;;;;10.63;100.00;99558.25;5071511;28;20094;-64
2022/01/01 03:35:21;;;;;;;12.77;5.93;;;;;;;10.64;100.00;99561.75;5071623;28;20420;-65
2022/01/01 03:37:46;;;;;;;8.83;5.90;;;;;;;10.72;100.00;99556.34;5071449;28;20110;-64
2022/01/01 03:40:12;;;;;;;8.47;5.23;;;;;;;10.66;100.00;99557.06;5071448;28;20090;-65
2022/01/01 03:42:38;;;;;;;9.97;5.70;;;;;;;10.62;100.00;99564.63;5071488;28;20099;-65
2022/01/01 03:45:06;;;;;;;10.43;5.47;;;;;;;10.62;100.00;99558.44;5071416;28;20021;-64
2022/01/01 03:47:32;;;;;;;8.83;5.07;;;;;;;10.53;100.00;99555.88;5071393;28;20033;-64
2022/01/01 03:49:58;;;;;;;9.63;5.73;;;;;;;10.49;100.00;99549.25;5071370;28;20027;-65
2022/01/01 03:52:23;;;;;;;9.80;5.50;;;;;;;10.41;100.00;99545.84;5071300;28;20056;-65
2022/01/01 03:54:49;;;;;;;9.80;5.27;;;;;;;10.48;100.00;99560.97;5071342;28;20496;-64
2022/01/01 03:57:14;;;;;;;8.57;5.30;;;;;;;10.38;100.00;99557.75;5071133;28;20515;-64
2022/01/01 03:59:40;;;;;;;8.50;5.77;;;;;;;10.37;100.00;99560.59;5071270;28;20078;-64
2022/01/01 04:02:05;;;;;;;8.67;5.70;;;;;;;10.34;100.00;99574.31;5071243;28;20123;-64
2022/01/01 04:04:31;;;;;;;9.37;6.10;;;;;;;10.31;100.00;99572.00;5071175;28;20063;-64
2022/01/01 04:06:57;;;;;;;10.03;5.50;;;;;;;10.36;100.00;99577.66;5071077;28;20037;-64
2022/01/01 04:09:23;;;;;;;8.40;5.67;;;;;;;10.33;100.00;99583.34;5071182;28;20024;-65
2022/01/01 04:11:48;;;;;;;11.03;5.90;;;;;;;10.13;100.00;99578.53;5070965;28;20058;-64
2022/01/01 04:14:16;;;;;;;9.93;6.40;;;;;;;10.06;100.00;99587.44;5071446;28;20023;-64
2022/01/01 04:16:43;;;;;;;10.47;6.33;;;;;;;9.96;100.00;99571.69;5071116;28;20036;-64
2022/01/01 04:19:08;;;;;;;9.53;5.73;;;;;;;10.05;100.00;99577.75;5069905;28;20028;-65
2022/01/01 04:21:35;;;;;;;9.30;5.83;;;;;;;10.03;100.00;99580.63;5071261;28;20024;-64
2022/01/01 04:24:02;;;;;;;10.77;6.47;;;;;;;10.01;100.00;99592.50;5071164;28;20381;-64
2022/01/01 04:26:28;;;;;;;12.57;6.50;;;;;;;9.99;100.00;99592.69;5071126;28;20028;-65
2022/01/01 04:28:54;;;;;;;13.83;6.50;;;;;;;9.99;100.00;99600.69;5071003;28;20388;-64
2022/01/01 04:31:19;;;;;;;10.67;6.10;;;;;;;10.01;100.00;99609.34;5070955;28;20071;-65
2022/01/01 04:33:45;;;;;;;10.40;6.57;;;;;;;10.03;100.00;99611.84;5072783;28;20025;-65
2022/01/01 04:36:11;;;;;;;12.10;6.60;;;;;;;10.09;100.00;99619.94;5074860;28;20362;-65
2022/01/01 04:38:38;;;;;;;10.77;6.83;;;;;;;10.06;100.00;99620.28;5074820;28;20024;-65
2022/01/01 04:41:05;;;;;;;10.90;6.73;;;;;;;10.01;100.00;99636.03;5074768;28;20420;-65
2022/01/01 04:43:31;;;;;;;12.60;7.00;;;;;;;10.01;100.00;99640.56;5074793;28;20029;-65
2022/01/01 04:45:56;;;;;;;11.47;6.10;;;;;;;10.19;100.00;99622.38;5073578;28;20033;-64
2022/01/01 04:48:22;;;;;;;10.13;5.93;;;;;;;10.15;100.00;99624.53;5074723;28;20473;-65
2022/01/01 04:50:48;;;;;;;11.33;6.03;;;;;;;10.08;100.00;99636.97;5074618;28;20031;-65
2022/01/01 04:53:17;;;;;;;10.33;6.27;;;;;;;10.04;100.00;99638.34;5074387;28;20024;-64
2022/01/01 04:55:43;;;;;;;10.37;6.20;;;;;;;10.12;100.00;99642.78;5074568;28;20519;-65
2022/01/01 04:58:08;;;;;;;11.90;6.73;;;;;;;10.02;100.00;99644.88;5074376;28;20036;-64
2022/01/01 05:00:34;;;;;;;10.20;6.03;;;;;;;10.03;100.00;99646.56;5074514;28;20056;-65
2022/01/01 05:03:00;;;;;;;10.33;6.60;;;;;;;10.04;100.00;99653.53;5074317;28;20035;-64
2022/01/01 05:05:25;;;;;;;11.33;6.37;;;;;;;10.04;100.00;99654.34;5074419;28;20028;-64
2022/01/01 05:07:51;;;;;;;10.73;6.30;;;;;;;10.06;100.00;99647.00;5074274;28;20021;-65
2022/01/01 05:10:17;;;;;;;12.27;6.87;;;;;;;9.99;100.00;99658.59;5073992;28;20020;-64
2022/01/01 05:12:42;;;;;;;11.67;7.10;;;;;;;9.96;100.00;99661.59;5073054;28;20051;-64
2022/01/01 05:15:08;;;;;;;11.73;6.87;;;;;;;9.94;100.00;99658.28;5074136;28;20032;-64
2022/01/01 05:17:34;;;;;;;13.20;7.03;;;;;;;10.00;100.00;99660.25;5074076;28;20428;-65
2022/01/01 05:20:01;;;;;;;10.57;6.00;;;;;;;10.01;100.00;99664.59;5074057;28;20036;-65
2022/01/01 05:22:26;;;;;;;10.27;6.33;;;;;;;10.04;100.00;99666.88;5074013;28;20039;-64
2022/01/01 05:24:56;;;;;;;11.60;6.70;;;;;;;10.01;100.00;99664.59;5074115;28;20036;-64
2022/01/01 05:27:22;;;;;;;10.47;6.27;;;;;;;9.97;100.00;99657.94;5074028;28;20036;-64
2022/01/01 05:29:48;;;;;;;14.40;6.77;;;;;;;10.04;100.00;99661.53;5074010;28;20043;-65
2022/01/01 05:32:13;;;;;;;12.33;6.27;;;;;;;10.11;100.00;99671.34;5073748;28;20028;-64
2022/01/01 05:34:39;;;;;;;14.33;8.80;;;;;;;10.15;100.00;99667.28;5073917;28;20586;-64
2022/01/01 05:37:05;;;;;;;13.13;7.03;;;;;;;10.04;100.00;99650.84;5073717;28;20056;-64
2022/01/01 05:39:31;;;;;;;11.60;6.20;;;;;;;10.08;100.00;99662.84;5073776;28;20032;-64
2022/01/01 05:41:57;;;;;;;11.10;6.30;;;;;;;10.17;100.00;99659.91;5073589;28;20392;-64
2022/01/01 05:44:22;;;;;;;11.87;6.40;;;;;;;10.26;100.00;99658.06;5073383;28;20036;-65
2022/01/01 05:46:50;;;;;;;11.53;6.43;;;;;;;10.30;100.00;99664.66;5073628;28;20032;-66
2022/01/01 05:49:16;;;;;;;12.07;6.10;;;;;;;10.17;100.00;99670.59;5073616;28;20033;-66
2022/01/01 05:51:41;;;;;;;9.87;5.47;;;;;;;10.44;100.00;99666.53;5073675;28;20205;-66
2022/01/01 05:54:07;;;;;;;10.93;5.97;;;;;;;10.42;100.00;99663.22;5073614;28;20028;-65
2022/01/01 05:56:33;;;;;;;11.17;6.33;;;;;;;10.28;100.00;99668.53;5072432;28;20454;-65
2022/01/01 05:58:58;;;;;;;9.07;5.00;;;;;;;10.31;100.00;99665.50;5073446;28;20020;-65
2022/01/01 06:01:24;;;;;;;10.70;5.90;;;;;;;10.26;100.00;99668.72;5073572;28;20110;-65
2022/01/01 06:03:49;;;;;;;10.63;5.40;;;;;;;10.17;100.00;99659.09;5073444;28;20454;-65
2022/01/01 06:06:15;;;;;;;8.27;5.10;;;;;;;10.25;100.00;99668.91;5073336;28;20028;-65
2022/01/01 06:08:40;;;;;;;9.40;5.67;;;;;;;10.32;100.00;99672.50;5073661;28;20107;-65
2022/01/01 06:11:06;;;;;;;11.27;6.23;;;;;;;10.29;100.00;99670.19;5071874;28;20045;-65
2022/01/01 06:13:31;;;;;;;12.37;5.90;;;;;;;10.28;100.00;99679.22;5073303;28;20028;-65
2022/01/01 06:15:57;;;;;;;9.83;5.50;;;;;;;10.25;100.00;99680.44;5073038;28;20070;-66
2022/01/01 06:18:23;;;;;;;9.07;5.40;;;;;;;10.24;100.00;99683.28;5073048;28;20058;-66
2022/01/01 06:20:48;;;;;;;8.70;5.23;;;;;;;10.22;100.00;99694.13;5073139;28;20064;-65
2022/01/01 06:23:14;;;;;;;10.93;5.63;;;;;;;10.30;100.00;99690.56;5073296;28;20052;-65
2022/01/01 06:25:39;;;;;;;9.53;5.40;;;;;;;10.46;100.00;99677.88;5073007;28;20111;-65
2022/01/01 06:28:05;;;;;;;9.50;5.30;;;;;;;10.35;100.00;99683.66;5072884;28;20024;-66
2022/01/01 06:30:33;;;;;;;11.03;5.90;;;;;;;10.34;100.00;99690.00;5072993;28;20082;-65
2022/01/01 06:33:14;;;;;;;9.37;5.43;;;;;;;10.29;100.00;99681.69;5072810;28;20028;-66
2022/01/01 06:35:44;;;;;;;9.00;5.30;;;;;;;10.24;100.00;99684.09;5072740;28;20032;-65
2022/01/01 06:38:11;;;;;;;8.70;5.37;;;;;;;10.24;100.00;99681.44;5072588;28;20069;-66
2022/01/01 06:40:39;;;;;;;10.87;5.67;;;;;;;10.27;100.00;99685.59;5072846;28;20032;-66
2022/01/01 06:43:06;;;;;;;8.87;5.70;;;;;;;10.22;100.00;99688.78;5072543;28;20039;-65
2022/01/01 06:45:32;;;;;;;10.17;5.40;;;;;;;10.23;100.00;99689.63;5071347;28;20090;-65
2022/01/01 06:47:58;;;;;;;9.23;4.87;;;;;;;10.15;100.00;99688.63;5072323;28;20466;-65
2022/01/01 06:50:23;;;;;;;10.03;5.47;;;;;;;10.23;100.00;99694.97;5072364;28;20067;-64
2022/01/01 06:52:49;;;;;;;11.80;7.07;;;;;;;10.26;100.00;99695.44;5072213;28;20047;-65
2022/01/01 06:55:15;;;;;;;9.67;5.50;;;;;;;10.35;100.00;99689.00;5071461;28;20609;-65
2022/01/01 06:57:43;;;;;;;9.50;4.83;;;;;;;10.29;100.00;99689.72;5070998;28;20039;-65
2022/01/01 07:00:10;;;;;;;9.17;5.70;;;;;;;10.19;100.00;99689.16;5072184;28;20083;-65
2022/01/01 07:02:42;;;;;;;10.23;5.03;;;;;;;10.13;100.00;99680.00;5072508;28;20378;-65
2022/01/01 07:05:08;;;;;;;8.43;5.77;;;;;;;10.20;100.00;99682.78;5072101;28;20145;-65
2022/01/01 07:07:34;;;;;;;8.73;5.40;;;;;;;10.15;100.00;99687.84;5072036;28;20416;-64
2022/01/01 07:09:59;;;;;;;9.57;4.90;;;;;;;10.23;100.00;99686.94;5072008;28;20039;-65
2022/01/01 07:12:25;;;;;;;10.17;5.80;;;;;;;10.19;100.00;99688.31;5071704;28;20157;-64
2022/01/01 07:14:50;;;;;;;10.30;5.00;;;;;;;10.22;100.00;99696.81;5071916;28;20032;-65
2022/01/01 07:17:16;;;;;;;10.07;5.30;;;;;;;10.30;100.00;99698.56;5071779;28;20039;-64
2022/01/01 07:19:41;;;;;;;20.97;12.33;;;;;;;10.27;100.00;99691.72;5071842;28;20063;-65
2022/01/01 07:22:07;;;;;;;51.33;30.87;;;;;;;10.31;100.00;99689.53;5071765;28;20029;-64
2022/01/01 07:24:32;;;;;;;8.97;5.30;;;;;;;10.29;100.00;99692.38;5072015;28;20040;-65
2022/01/01 07:26:58;;;;;;;9.93;5.20;;;;;;;10.25;100.00;99695.63;5071645;28;20063;-64
2022/01/01 07:29:23;;;;;;;8.77;5.20;;;;;;;10.22;100.00;99690.63;5071593;28;20024;-64
2022/01/01 07:31:53;;;;;;;11.67;5.63;;;;;;;10.25;100.00;99696.44;5071584;28;20033;-65
2022/01/01 07:34:21;;;;;;;9.93;5.40;;;;;;;10.33;100.00;99695.53;5071530;28;20040;-64
2022/01/01 07:36:47;;;;;;;9.47;5.33;;;;;;;10.48;100.00;99707.09;5059929;28;20040;-64
2022/01/01 07:39:13;;;;;;;23.40;15.67;;;;;;;10.46;100.00;99717.13;5071473;28;20060;-64
2022/01/01 07:41:39;;;;;;;10.93;8.27;;;;;;;10.46;100.00;99720.63;5071252;28;20429;-64
2022/01/01 07:44:05;;;;;;;10.73;6.03;;;;;;;10.40;100.00;99728.53;5070998;28;20028;-65
2022/01/01 07:46:30;;;;;;;8.87;5.47;;;;;;;10.44;100.00;99719.97;5071167;28;20036;-65
2022/01/01 07:48:57;;;;;;;10.33;5.70;;;;;;;10.38;100.00;99701.19;5071236;28;20107;-65
2022/01/01 07:51:23;;;;;;;10.37;5.23;;;;;;;10.36;100.00;99685.31;5071306;28;20032;-63
2022/01/01 07:53:48;;;;;;;9.63;5.47;;;;;;;10.41;100.00;99679.41;5069653;28;20021;-63
2022/01/01 07:56:14;;;;;;;9.57;5.30;;;;;;;10.48;100.00;99683.88;5071248;28;20063;-64
2022/01/01 07:58:39;;;;;;;9.87;6.50;;;;;;;10.61;100.00;99682.41;5070166;28;20744;-63
2022/01/01 08:01:05;;;;;;;10.93;7.00;;;;;;;10.72;100.00;99688.13;5069909;28;20028;-63
2022/01/01 08:03:30;;;;;;;9.43;5.47;;;;;;;10.74;100.00;99691.44;5069761;28;20086;-63
2022/01/01 08:05:56;;;;;;;9.97;5.77;;;;;;;10.85;100.00;99687.47;5070570;28;20037;-63
2022/01/01 08:08:22;;;;;;;9.43;5.60;;;;;;;10.98;100.00;99684.13;5070931;28;20060;-66
2022/01/01 08:10:48;;;;;;;9.10;5.73;;;;;;;11.25;100.00;99688.81;5070790;28;20501;-66
2022/01/01 08:13:22;;;;;;;9.00;6.27;;;;;;;12.08;100.00;99682.94;5071071;28;20040;-65
2022/01/01 08:15:49;;;;;;;8.07;4.67;;;;;;;12.66;100.00;99694.31;5070808;28;20088;-65
2022/01/01 08:18:14;;;;;;;8.93;4.80;;;;;;;13.46;100.00;99693.72;5070876;28;20490;-65
2022/01/01 08:20:40;;;;;;;8.80;5.10;;;;;;;12.86;100.00;99687.19;5071054;28;20121;-67
2022/01/01 08:23:06;;;;;;;7.50;4.90;;;;;;;12.81;100.00;99689.63;5071012;28;20374;-66
2022/01/01 08:25:31;;;;;;;9.70;5.37;;;;;;;12.57;100.00;99695.50;5071026;28;20503;-66
2022/01/01 08:27:56;;;;;;;17.43;11.80;;;;;;;12.16;100.00;99703.41;5071019;28;20063;-66
2022/01/01 08:30:22;;;;;;;9.10;5.40;;;;;;;12.01;100.00;99702.63;5070859;28;20029;-67
2022/01/01 08:32:47;;;;;;;10.00;5.03;;;;;;;11.93;100.00;99704.44;5070880;28;20068;-66
2022/01/01 08:35:14;;;;;;;8.83;5.23;;;;;;;12.01;100.00;99698.09;5070914;28;20040;-67
2022/01/01 08:37:41;;;;;;;10.53;5.57;;;;;;;12.07;100.00;99700.03;5071134;28;20025;-64
2022/01/01 08:40:07;;;;;;;9.60;5.30;;;;;;;11.98;100.00;99697.69;5069681;28;20025;-64
2022/01/01 08:42:33;;;;;;;9.13;5.47;;;;;;;12.07;100.00;99697.34;5071411;28;20377;-64
2022/01/01 08:44:59;;;;;;;8.67;5.60;;;;;;;11.88;100.00;99693.44;5071036;28;20037;-64
2022/01/01 08:47:26;;;;;;;9.20;5.17;;;;;;;11.90;100.00;99694.09;5070627;28;20040;-64
2022/01/01 08:49:55;;;;;;;8.97;5.30;;;;;;;12.03;100.00;99696.06;5070589;28;20055;-64
2022/01/01 08:52:22;;;;;;;12.17;5.30;;;;;;;12.09;100.00;99702.50;5068898;28;20382;-65
2022/01/01 08:54:49;;;;;;;9.03;5.60;;;;;;;12.17;100.00;99700.53;5070424;28;20029;-64
2022/01/01 08:57:16;;;;;;;10.37;5.03;;;;;;;11.94;100.00;99697.22;5070499;28;20480;-66
2022/01/01 08:59:41;;;;;;;10.43;5.23;;;;;;;11.54;100.00;99701.28;5069591;28;20495;-65
2022/01/01 09:02:08;;;;;;;9.33;5.13;;;;;;;11.86;100.00;99690.16;5070636;28;20249;-65
2022/01/01 09:04:34;;;;;;;8.87;4.77;;;;;;;11.93;100.00;99700.91;5070499;28;20036;-65
2022/01/01 09:06:59;;;;;;;8.27;5.00;;;;;;;11.95;100.00;99693.53;5070471;28;20036;-65
2022/01/01 09:09:25;;;;;;;8.43;5.27;;;;;;;11.87;100.00;99699.00;5070421;28;20690;-65
2022/01/01 09:11:50;;;;;;;9.03;5.27;;;;;;;12.21;100.00;99695.63;5070251;28;20041;-65
2022/01/01 09:14:16;;;;;;;8.47;4.80;;;;;;;11.83;100.00;99701.25;5070343;28;20028;-65
2022/01/01 09:16:41;;;;;;;7.77;4.97;;;;;;;12.18;100.00;99696.00;5070259;28;20055;-65
2022/01/01 09:19:07;;;;;;;9.70;5.73;;;;;;;12.18;100.00;99694.16;5071976;28;20103;-67
2022/01/01 09:21:33;;;;;;;9.77;5.33;;;;;;;11.70;100.00;99701.06;5073833;28;20540;-66
2022/01/01 09:23:58;;;;;;;7.77;4.63;;;;;;;11.73;100.00;99699.88;5074044;28;20527;-65
2022/01/01 09:26:26;;;;;;;8.33;5.27;;;;;;;11.86;100.00;99705.38;5073794;28;20037;-65
2022/01/01 09:28:52;;;;;;;9.80;5.13;;;;;;;11.88;100.00;99706.03;5073830;28;20103;-67
2022/01/01 09:31:17;;;;;;;8.43;5.10;;;;;;;12.69;100.00;99700.09;5073658;28;20111;-66
2022/01/01 09:33:43;;;;;;;9.47;5.10;;;;;;;13.16;100.00;99701.19;5073804;28;20035;-67
2022/01/01 09:36:09;;;;;;;19.17;9.87;;;;;;;14.27;100.00;99712.47;5073757;28;20097;-66
2022/01/01 09:38:36;;;;;;;11.17;5.67;;;;;;;13.86;100.00;99707.22;5073785;28;20024;-65
2022/01/01 09:41:02;;;;;;;8.50;5.13;;;;;;;14.76;100.00;99703.97;5073758;28;20032;-66
2022/01/01 09:43:30;;;;;;;8.83;5.40;;;;;;;15.29;100.00;99703.81;5073689;28;20111;-65
2022/01/01 09:45:57;;;;;;;12.33;7.50;;;;;;;15.82;100.00;99697.16;5073585;28;20028;-65
2022/01/01 09:48:24;;;;;;;8.40;5.10;;;;;;;15.36;100.00;99697.38;5073122;28;20538;-66
2022/01/01 09:50:53;;;;;;;9.37;6.00;;;;;;;15.21;100.00;99705.72;5073351;28;20036;-65
2022/01/01 09:53:20;;;;;;;8.73;5.60;;;;;;;15.31;100.00;99696.38;5073714;28;20511;-65
2022/01/01 09:55:46;;;;;;;10.30;6.40;;;;;;;15.35;100.00;99702.94;5072733;28;20032;-66
2022/01/01 09:58:11;;;;;;;10.63;6.87;;;;;;;15.34;100.00;99710.25;5073326;28;20029;-65
2022/01/01 10:00:37;;;;;;;8.57;5.57;;;;;;;15.72;100.00;99706.75;5073454;28;20393;-65
2022/01/01 10:03:02;;;;;;;10.27;5.63;;;;;;;16.30;100.00;99708.22;5073488;28;20037;-65
2022/01/01 10:05:28;;;;;;;8.77;5.03;;;;;;;15.87;100.00;99700.03;5073337;28;20710;-65
2022/01/01 10:07:54;;;;;;;7.33;4.80;;;;;;;15.38;100.00;99694.47;5073434;28;20050;-65
2022/01/01 10:10:22;;;;;;;7.97;4.50;;;;;;;15.16;100.00;99693.94;5073096;28;20071;-64
2022/01/01 10:12:48;;;;;;;7.03;4.83;;;;;;;15.07;100.00;99692.50;5073253;28;20051;-65
2022/01/01 10:15:14;;;;;;;6.03;4.20;;;;;;;14.81;100.00;99685.34;5073161;28;20036;-65
2022/01/01 10:17:40;;;;;;;6.60;4.40;;;;;;;14.74;100.00;99693.44;5073220;28;20672;-65
2022/01/01 10:20:07;;;;;;;6.50;4.00;;;;;;;14.49;100.00;99695.94;5073126;28;20039;-65
2022/01/01 10:22:32;;;;;;;10.63;6.40;;;;;;;15.53;100.00;99698.53;5071897;28;20043;-65
2022/01/01 10:28:03;;;;;;;7.07;4.27;;;;;;;14.94;100.00;99693.38;5072980;28;20444;-65
2022/01/01 10:30:38;;;;;;;6.43;4.03;;;;;;;15.87;100.00;99691.13;5073049;28;20477;-65
2022/01/01 10:33:18;;;;;;;6.67;4.20;;;;;;;15.60;100.00;99687.75;5072712;28;20059;-65
2022/01/01 10:35:48;;;;;;;7.57;3.97;;;;;;;16.99;100.00;99692.88;5071323;28;20024;-66
2022/01/01 10:38:20;;;;;;;6.63;4.10;;;;;;;15.55;100.00;99698.38;5072466;28;20020;-66
2022/01/01 10:40:46;;;;;;;6.43;3.80;;;;;;;14.55;100.00;99698.81;5072424;28;20024;-65
2022/01/01 10:43:15;;;;;;;7.03;4.33;;;;;;;13.96;100.00;99708.47;5072252;28;20550;-65
2022/01/01 10:45:47;;;;;;;6.70;3.80;;;;;;;13.93;100.00;99716.13;5072250;28;20412;-65
2022/01/01 10:48:39;;;;;;;6.30;3.57;;;;;;;13.53;100.00;99707.13;5071215;28;20154;-65
2022/01/01 10:51:07;;;;;;;6.20;4.53;;;;;;;13.10;100.00;99717.25;5072256;28;20027;-64
2022/01/01 10:53:34;;;;;;;6.67;4.00;;;;;;;13.51;100.00;99707.34;5072248;28;20028;-64
2022/01/01 10:56:03;;;;;;;6.47;4.27;;;;;;;13.40;100.00;99715.97;5072273;28;20032;-65
2022/01/01 10:58:35;;;;;;;7.07;4.20;;;;;;;13.01;100.00;99711.22;5070988;28;20553;-64
2022/01/01 11:01:03;;;;;;;6.07;3.50;;;;;;;13.29;100.00;99703.13;5072177;28;20066;-65
2022/01/01 11:03:45;;;;;;;7.53;4.30;;;;;;;13.35;100.00;99715.75;5072093;28;20031;-64
2022/01/01 11:06:12;;;;;;;7.83;4.27;;;;;;;13.78;100.00;99703.72;5071965;28;20032;-64
2022/01/01 11:08:43;;;;;;;6.60;4.27;;;;;;;14.04;100.00;99708.31;5072314;28;20131;-64
2022/01/01 11:11:13;;;;;;;6.50;3.53;;;;;;;13.76;100.00;99700.38;5070452;28;20055;-64
2022/01/01 11:13:41;;;;;;;6.87;3.70;;;;;;;13.94;100.00;99690.94;5072183;28;20481;-64
2022/01/01 11:16:08;;;;;;;7.27;4.33;;;;;;;14.01;100.00;99697.13;5071897;28;20452;-66
2022/01/01 11:18:34;;;;;;;7.33;3.87;;;;;;;13.28;100.00;99696.94;5071880;28;20032;-64
2022/01/01 11:21:01;;;;;;;5.87;3.93;;;;;;;13.06;100.00;99709.59;5071846;28;20020;-64
2022/01/01 11:23:28;;;;;;;5.80;3.70;;;;;;;13.19;100.00;99710.72;5071763;28;20020;-65
2022/01/01 11:25:56;;;;;;;8.17;4.30;;;;;;;13.83;100.00;99718.41;5071807;28;20115;-64